Time;durP1;ratioP1;P1;durP2;ratioP2;P2;SDS_P1;SDS_P2;PMS_P1;PMS_P2;Temp;Humidity;BMP_temperature;BMP_pressure;BME280_temperature;BME280_humidity;BME280_pressure;Samples;Min_cycle;Max_cycle;Signal;HPM_P1;HPM_P2
2022/03/29 04:01:53;;;;;;;;;;;10.20;78.10;;;;;;5381428;22;19925;-65
2022/03/29 04:04:19;;;;;;;;;;;10.20;78.30;;;;;;5054154;28;19925;-65
2022/03/29 04:06:46;;;;;;;;;;;10.20;78.30;;;;;;5054058;28;20330;-65
2022/03/29 04:09:12;;;;;;;;;;;10.20;78.20;;;;;;5053606;28;19975;-65
2022/03/29 04:11:39;;;;;;;;;;;10.20;78.90;;;;;;5053805;28;19931;-65
2022/03/29 04:14:06;;;;;;;;;;;10.10;79.90;;;;;;5053838;28;19929;-64
2022/03/29 04:16:33;;;;;;;;;;;10.10;80.60;;;;;;5053799;28;19932;-65
2022/03/29 04:19:01;;;;;;;;;;;10.10;79.70;;;;;;5053827;28;19964;-65
2022/03/29 04:21:28;;;;;;;;;;;10.00;79.70;;;;;;5053462;28;20398;-64
2022/03/29 04:23:54;;;;;;;;;;;10.00;79.90;;;;;;5053491;28;20383;-64
2022/03/29 04:26:21;;;;;;;;;;;10.00;80.20;;;;;;5054358;28;19928;-65
2022/03/29 04:28:48;;;;;;;;;;;10.00;78.70;;;;;;5053875;28;19925;-65
2022/03/29 04:31:14;;;;;;;;;;;10.00;78.00;;;;;;5053878;28;19929;-65
2022/03/29 04:33:43;;;;;;;;;;;10.00;77.70;;;;;;5053760;28;19929;-65
2022/03/29 04:36:11;;;;;;;;;;;10.00;78.20;;;;;;5053718;28;19924;-64
2022/03/29 04:38:38;;;;;;;;;;;10.00;78.00;;;;;;5053749;28;19931;-65
2022/03/29 04:41:05;;;;;;;;;;;10.00;79.10;;;;;;5053687;28;19974;-65
2022/03/29 04:43:32;;;;;;;;;;;10.00;79.00;;;;;;5053971;28;19979;-65
2022/03/29 04:45:58;;;;;;;;;;;10.00;78.80;;;;;;5053263;28;20368;-66
2022/03/29 04:48:25;;;;;;;;;;;9.90;80.10;;;;;;5053953;28;19974;-65
2022/03/29 04:50:51;;;;;;;;;;;9.90;81.00;;;;;;5053754;28;19929;-65
2022/03/29 04:53:20;;;;;;;;;;;9.90;82.70;;;;;;5056022;28;19925;-64
2022/03/29 04:55:46;;;;;;;;;;;9.90;83.10;;;;;;5057566;28;19924;-65
2022/03/29 04:58:13;;;;;;;;;;;9.80;83.50;;;;;;5057411;28;19924;-65
2022/03/29 05:00:39;;;;;;;;;;;9.80;94.50;;;;;;5057288;28;19947;-65
2022/03/29 05:03:06;;;;;;;;;;;9.80;96.90;;;;;;5057914;28;19924;-65
2022/03/29 05:05:32;;;;;;;;;;;9.80;92.80;;;;;;5057277;28;19928;-65
2022/03/29 05:07:59;;;;;;;;;;;9.80;91.80;;;;;;5057103;28;19932;-66
2022/03/29 05:10:27;;;;;;;;;;;9.80;91.10;;;;;;5057102;28;19931;-65
2022/03/29 05:12:55;;;;;;;;;;;9.80;90.70;;;;;;5056780;28;19924;-65
2022/03/29 05:15:22;;;;;;;;;;;9.80;90.50;;;;;;5056633;28;20467;-65
2022/03/29 05:17:48;;;;;;;;;;;9.70;88.90;;;;;;5056983;28;19931;-65
2022/03/29 05:20:16;;;;;;;;;;;9.70;89.50;;;;;;5056980;28;19978;-65
2022/03/29 05:22:43;;;;;;;;;;;9.60;89.40;;;;;;5056685;28;19928;-65
2022/03/29 05:25:09;;;;;;;;;;;9.60;88.90;;;;;;5056784;28;20019;-65
2022/03/29 05:27:38;;;;;;;;;;;9.60;88.80;;;;;;5056753;28;19932;-66
2022/03/29 05:30:05;;;;;;;;;;;9.60;89.40;;;;;;5056590;28;19974;-66
2022/03/29 05:32:31;;;;;;;;;;;9.70;90.00;;;;;;5056304;28;19935;-65
2022/03/29 05:34:58;;;;;;;;;;;9.70;89.30;;;;;;5057000;28;19925;-65
2022/03/29 05:37:24;;;;;;;;;;;9.70;89.00;;;;;;5056743;28;19924;-65
2022/03/29 05:39:51;;;;;;;;;;;9.60;88.60;;;;;;5060813;28;20038;-65
2022/03/29 05:42:17;;;;;;;;;;;9.70;88.90;;;;;;5062604;28;19929;-65
2022/03/29 05:44:45;;;;;;;;;;;9.70;88.50;;;;;;5056959;28;20296;-65
2022/03/29 05:49:57;;;;;;;;;;;9.70;88.20;;;;;;5056562;28;20014;-65
2022/03/29 05:52:24;;;;;;;;;;;9.80;87.90;;;;;;5056399;28;19974;-66
2022/03/29 05:54:50;;;;;;;;;;;9.80;87.80;;;;;;5056416;28;19947;-66
2022/03/29 05:57:19;;;;;;;;;;;9.90;87.80;;;;;;5057395;28;19932;-63
2022/03/29 05:59:46;;;;;;;;;;;9.90;96.90;;;;;;5056802;28;20019;-64
2022/03/29 06:02:13;;;;;;;;;;;10.10;99.90;;;;;;5056823;28;20011;-65
2022/03/29 06:04:40;;;;;;;;;;;10.30;99.90;;;;;;5056949;28;19925;-65
2022/03/29 06:07:07;;;;;;;;;;;10.60;99.90;;;;;;5056729;28;20414;-63
2022/03/29 06:09:34;;;;;;;;;;;10.80;99.90;;;;;;5056788;28;19932;-64
2022/03/29 06:12:01;;;;;;;;;;;11.00;99.00;;;;;;5056970;28;19925;-65
2022/03/29 06:14:28;;;;;;;;;;;11.10;94.60;;;;;;5057229;28;20003;-65
2022/03/29 06:16:56;;;;;;;;;;;11.10;90.40;;;;;;5056938;28;19932;-65
2022/03/29 06:19:23;;;;;;;;;;;11.20;88.80;;;;;;5056581;28;19932;-65
2022/03/29 06:21:49;;;;;;;;;;;11.20;86.30;;;;;;5062749;28;19932;-65
2022/03/29 06:24:16;;;;;;;;;;;11.10;85.20;;;;;;5066133;28;20275;-65
2022/03/29 06:26:43;;;;;;;19.77;14.67;;;11.00;85.60;;;;;;5061591;28;19951;-65
2022/03/29 06:29:11;;;;;;;19.47;14.60;;;11.00;85.20;;;;;;5060127;28;20451;-66
2022/03/29 06:31:39;;;;;;;14.70;13.23;;;10.90;85.50;;;;;;5065014;28;20570;-67
2022/03/29 06:34:07;;;;;;;17.20;13.30;;;11.00;86.10;;;;;;5067362;28;20455;-66
2022/03/29 06:36:34;;;;;;;21.40;13.83;;;11.00;87.20;;;;;;5068473;28;20446;-66
2022/03/29 06:39:00;;;;;;;16.77;13.83;;;11.20;86.50;;;;;;5058079;28;20784;-65
2022/03/29 06:41:28;;;;;;;21.37;14.30;;;11.30;85.20;;;;;;5056940;28;20810;-65
2022/03/29 06:43:55;;;;;;;20.17;14.90;;;11.40;85.80;;;;;;5057735;28;20987;-65
2022/03/29 06:46:21;;;;;;;19.80;15.00;;;11.40;84.80;;;;;;5057105;28;20482;-65
2022/03/29 06:48:48;;;;;;;20.37;14.80;;;11.50;84.70;;;;;;5056622;28;20478;-67
2022/03/29 06:51:18;;;;;;;18.97;13.63;;;11.60;84.40;;;;;;5056022;28;20478;-65
2022/03/29 06:53:45;;;;;;;23.30;15.73;;;11.50;82.60;;;;;;5056487;28;20455;-64
2022/03/29 06:56:12;;;;;;;23.13;15.30;;;11.60;81.60;;;;;;5056466;28;20459;-65
2022/03/29 06:58:39;;;;;;;19.50;14.23;;;11.70;82.40;;;;;;5055706;28;21013;-64
2022/03/29 07:01:05;;;;;;;21.03;15.07;;;11.80;82.60;;;;;;5054995;28;20518;-65
2022/03/29 07:03:34;;;;;;;19.77;16.00;;;11.70;81.40;;;;;;5055564;28;20957;-65
2022/03/29 07:06:02;;;;;;;16.90;14.10;;;11.80;82.70;;;;;;5055902;28;20476;-64
2022/03/29 07:08:31;;;;;;;17.83;14.53;;;11.90;80.60;;;;;;5056468;28;20455;-64
2022/03/29 07:13:44;;;;;;;18.67;14.80;;;12.30;79.80;;;;;;5055938;28;20427;-64
2022/03/29 07:16:12;;;;;;;19.03;15.20;;;12.40;79.70;;;;;;5054984;28;20451;-65
2022/03/29 07:18:39;;;;;;;24.77;15.20;;;12.50;78.80;;;;;;5055543;28;20491;-64
2022/03/29 07:21:06;;;;;;;23.83;15.37;;;12.70;78.20;;;;;;5054900;28;20470;-64
2022/03/29 07:23:34;;;;;;;19.93;15.00;;;12.70;78.00;;;;;;5055340;28;20459;-63
2022/03/29 07:26:00;;;;;;;16.70;14.90;;;12.60;77.40;;;;;;5055631;28;20475;-63
2022/03/29 07:28:27;;;;;;;19.73;16.13;;;12.50;78.30;;;;;;5054953;28;20452;-64
2022/03/29 07:30:54;;;;;;;19.93;14.80;;;12.50;78.60;;;;;;5056306;28;20478;-65
2022/03/29 07:33:21;;;;;;;25.17;15.53;;;12.40;79.30;;;;;;5055854;28;20797;-65
2022/03/29 07:35:49;;;;;;;20.27;15.70;;;12.40;79.30;;;;;;5056123;28;20432;-65
2022/03/29 07:38:16;;;;;;;21.17;15.50;;;12.50;79.60;;;;;;5055426;28;20489;-64
2022/03/29 07:40:44;;;;;;;23.13;14.83;;;12.60;79.70;;;;;;5055634;28;20878;-64
2022/03/29 07:43:13;;;;;;;23.50;15.73;;;12.80;79.70;;;;;;5055259;28;20455;-64
2022/03/29 07:45:40;;;;;;;20.10;15.87;;;13.00;79.30;;;;;;5055691;28;20482;-64
2022/03/29 07:48:07;;;;;;;25.50;16.07;;;13.10;77.60;;;;;;5056031;28;20451;-64
2022/03/29 07:50:35;;;;;;;22.83;15.40;;;13.40;77.70;;;;;;5057028;28;20471;-64
2022/03/29 07:53:03;;;;;;;22.00;16.23;;;13.70;76.90;;;;;;5055393;28;20451;-64
2022/03/29 07:55:30;;;;;;;22.70;15.17;;;14.10;75.20;;;;;;5059068;28;20538;-65
2022/03/29 07:57:58;;;;;;;21.43;15.40;;;14.40;73.70;;;;;;5060213;28;20452;-65
2022/03/29 08:00:35;;;;;;;26.07;15.73;;;14.40;72.90;;;;;;5059720;28;20966;-64
2022/03/29 08:03:06;;;;;;;24.50;16.17;;;14.60;72.00;;;;;;5060847;28;20975;-65
2022/03/29 08:05:34;;;;;;;20.70;15.60;;;14.90;71.90;;;;;;5057409;28;20469;-65
2022/03/29 08:08:01;;;;;;;22.13;15.33;;;15.10;71.30;;;;;;5055498;28;20435;-65
2022/03/29 08:10:30;;;;;;;20.93;16.40;;;15.40;71.80;;;;;;5057400;28;20455;-66
2022/03/29 08:13:00;;;;;;;24.63;16.63;;;15.70;71.20;;;;;;5058894;28;20443;-65
2022/03/29 08:15:28;;;;;;;22.57;16.30;;;16.00;70.20;;;;;;5059314;28;20440;-65
2022/03/29 08:17:55;;;;;;;20.63;16.07;;;16.20;68.90;;;;;;5060664;28;20457;-65
2022/03/29 08:20:22;;;;;;;21.53;16.43;;;16.40;69.10;;;;;;5068209;28;20458;-64
2022/03/29 08:22:50;;;;;;;18.50;15.50;;;16.70;68.40;;;;;;5060271;28;20938;-64
2022/03/29 08:25:18;;;;;;;23.97;17.00;;;17.00;66.40;;;;;;5056303;28;20512;-65
2022/03/29 08:27:46;;;;;;;18.53;15.63;;;17.30;65.40;;;;;;5057821;28;20798;-64
2022/03/29 08:30:15;;;;;;;24.50;16.47;;;17.40;62.80;;;;;;5061111;28;20478;-65
2022/03/29 08:32:42;;;;;;;23.80;16.30;;;17.60;61.70;;;;;;5060079;28;20459;-65
2022/03/29 08:35:12;;;;;;;19.83;16.73;;;17.50;62.70;;;;;;5059479;28;20458;-65
2022/03/29 08:37:40;;;;;;;20.03;15.43;;;17.90;64.20;;;;;;5058994;28;20446;-65
2022/03/29 08:40:11;;;;;;;17.00;15.20;;;18.60;62.40;;;;;;5059664;28;20501;-65
2022/03/29 08:42:38;;;;;;;20.50;16.90;;;19.30;61.00;;;;;;5060820;28;20435;-66
2022/03/29 08:45:07;;;;;;;19.37;16.47;;;19.70;58.70;;;;;;5060049;28;20462;-66
2022/03/29 08:47:36;;;;;;;23.83;15.10;;;19.80;56.00;;;;;;5062000;28;20447;-66
2022/03/29 08:50:04;;;;;;;17.20;15.60;;;19.90;56.60;;;;;;5064708;28;20565;-66
2022/03/29 08:52:31;;;;;;;20.90;15.30;;;19.90;55.40;;;;;;5068135;28;20478;-66
2022/03/29 08:54:58;;;;;;;22.30;15.50;;;19.50;54.70;;;;;;5069076;28;20451;-65
2022/03/29 08:57:25;;;;;;;19.07;16.90;;;19.40;55.80;;;;;;5070350;28;20439;-65
2022/03/29 08:59:52;;;;;;;19.47;16.07;;;19.50;54.40;;;;;;5067971;28;20443;-65
2022/03/29 09:02:19;;;;;;;20.07;17.47;;;19.50;54.50;;;;;;5068709;28;20479;-65
2022/03/29 09:05:09;;;;;;;20.70;16.93;;;19.30;54.30;;;;;;5069652;28;20938;-65
2022/03/29 09:07:50;;;;;;;19.37;17.13;;;19.60;55.80;;;;;;5067094;28;20431;-65
2022/03/29 09:10:17;;;;;;;18.07;15.47;;;19.90;54.40;;;;;;5067373;28;20434;-66
2022/03/29 09:12:44;;;;;;;20.57;16.00;;;20.10;54.10;;;;;;5067412;28;20807;-66
2022/03/29 09:15:11;;;;;;;18.57;15.23;;;20.10;52.90;;;;;;5068501;28;20448;-66
2022/03/29 09:17:39;;;;;;;45.77;17.10;;;20.00;55.00;;;;;;5067056;28;20451;-65
2022/03/29 09:20:10;;;;;;;19.13;16.27;;;20.00;53.40;;;;;;5069095;28;20458;-65
2022/03/29 09:22:43;;;;;;;22.40;15.60;;;20.00;53.70;;;;;;5068427;28;20501;-65
2022/03/29 09:25:12;;;;;;;20.07;16.33;;;19.80;54.70;;;;;;5067304;28;20435;-65
2022/03/29 09:28:00;;;;;;;20.47;15.00;;;19.80;53.50;;;;;;5066057;28;20475;-66
2022/03/29 09:30:29;;;;;;;18.57;15.93;;;20.00;54.70;;;;;;5063677;28;20440;-66
2022/03/29 09:33:04;;;;;;;19.37;16.00;;;20.20;53.60;;;;;;5060139;28;20458;-66
2022/03/29 09:35:33;;;;;;;16.70;15.00;;;20.40;53.40;;;;;;5059279;28;20527;-66
2022/03/29 09:38:01;;;;;;;16.80;15.00;;;20.60;51.90;;;;;;5058287;28;20451;-66
2022/03/29 09:40:39;;;;;;;17.43;15.63;;;20.70;52.40;;;;;;5059482;28;20456;-66
2022/03/29 09:43:10;;;;;;;18.47;15.63;;;20.70;52.60;;;;;;5060079;28;20474;-66
2022/03/29 09:45:45;;;;;;;19.90;17.43;;;20.70;52.20;;;;;;5060107;28;20436;-66
2022/03/29 09:48:26;;;;;;;17.37;15.00;;;21.00;53.30;;;;;;5059630;28;20439;-66
2022/03/29 09:50:59;;;;;;;18.97;16.23;;;21.10;50.60;;;;;;5059853;28;20471;-67
2022/03/29 09:53:40;;;;;;;21.60;16.50;;;21.20;51.60;;;;;;5058359;28;20816;-66
2022/03/29 09:56:08;;;;;;;17.53;15.57;;;21.20;52.70;;;;;;5057593;28;20779;-65
2022/03/29 09:58:35;;;;;;;27.00;17.43;;;21.10;51.20;;;;;;5057135;28;20474;-65
2022/03/29 10:01:03;;;;;;;23.43;16.83;;;20.80;50.70;;;;;;5057495;28;20482;-65
2022/03/29 10:03:31;;;;;;;17.73;15.63;;;20.70;52.40;;;;;;5057379;28;20451;-65
2022/03/29 10:06:03;;;;;;;18.67;15.43;;;20.70;52.40;;;;;;5057844;28;20521;-65
2022/03/29 10:11:15;;;;;;;18.83;15.80;;;20.80;52.60;;;;;;5035084;28;20465;-65
2022/03/29 10:13:42;;;;;;;17.40;15.30;;;20.90;53.60;;;;;;5058687;28;20486;-65
2022/03/29 10:16:12;;;;;;;16.80;15.10;;;21.30;51.50;;;;;;5058641;28;20470;-66
2022/03/29 10:18:40;;;;;;;17.00;15.20;;;21.60;50.90;;;;;;5057435;28;20455;-65
2022/03/29 10:21:11;;;;;;;18.33;15.60;;;22.00;51.30;;;;;;5058619;28;20460;-66
2022/03/29 10:23:39;;;;;;;22.33;16.50;;;22.30;51.50;;;;;;5056353;28;20836;-65
2022/03/29 10:26:07;;;;;;;19.30;15.47;;;22.30;48.70;;;;;;5056303;28;20483;-65
2022/03/29 10:28:33;;;;;;;22.20;15.53;;;22.10;50.00;;;;;;5056858;28;20451;-65
2022/03/29 10:31:00;;;;;;;23.60;16.77;;;22.30;51.40;;;;;;5057024;28;20474;-65
2022/03/29 10:33:30;;;;;;;20.47;15.70;;;22.80;48.30;;;;;;5057117;28;20459;-65
2022/03/29 10:36:10;;;;;;;18.40;16.50;;;22.80;50.00;;;;;;5056739;28;20455;-66
2022/03/29 10:39:01;;;;;;;18.33;16.30;;;22.90;50.50;;;;;;5056615;28;20893;-65
2022/03/29 10:41:50;;;;;;;19.87;17.07;;;22.90;48.10;;;;;;5057898;28;20478;-66
2022/03/29 10:44:17;;;;;;;20.37;15.10;;;23.00;49.20;;;;;;5057249;28;20562;-65
2022/03/29 10:46:46;;;;;;;18.90;16.10;;;22.80;47.70;;;;;;5057039;28;20475;-64
2022/03/29 10:49:17;;;;;;;19.13;15.80;;;22.60;46.40;;;;;;5056474;28;20455;-66
2022/03/29 10:51:45;;;;;;;24.73;16.17;;;22.50;46.80;;;;;;5054457;28;20471;-66
2022/03/29 10:54:30;;;;;;;20.10;15.73;;;22.50;47.30;;;;;;5055422;28;20788;-66
2022/03/29 10:56:58;;;;;;;19.07;16.27;;;22.70;49.60;;;;;;5055453;28;20502;-65
2022/03/29 10:59:25;;;;;;;19.17;17.20;;;22.80;48.10;;;;;;5055142;28;20458;-65
2022/03/29 11:02:09;;;;;;;18.97;17.00;;;22.60;46.70;;;;;;5055248;28;20863;-65
2022/03/29 11:04:36;;;;;;;21.23;16.97;;;22.10;46.20;;;;;;5056720;28;20458;-65
2022/03/29 11:07:12;;;;;;;21.30;17.70;;;21.60;46.50;;;;;;5055608;28;20459;-65
2022/03/29 11:09:41;;;;;;;19.10;16.80;;;21.20;47.10;;;;;;5057212;28;20513;-66
2022/03/29 11:12:43;;;;;;;23.13;16.73;;;21.20;48.20;;;;;;5056544;28;21034;-65
2022/03/29 11:15:46;;;;;;;27.30;18.97;;;21.30;48.00;;;;;;5057250;28;20450;-64
2022/03/29 11:18:50;;;;;;;21.73;18.23;;;21.30;48.10;;;;;;5057652;28;20439;-66
2022/03/29 11:21:38;;;;;;;24.20;19.33;;;21.40;48.50;;;;;;5058895;28;20509;-65
2022/03/29 11:24:10;;;;;;;22.57;18.10;;;21.10;49.20;;;;;;5057195;28;20435;-65
2022/03/29 11:26:37;;;;;;;26.20;19.00;;;20.90;49.80;;;;;;5056581;28;20464;-65
2022/03/29 11:29:07;;;;;;;22.23;18.87;;;20.80;49.60;;;;;;5065059;28;20526;-66
2022/03/29 11:31:37;;;;;;;26.17;18.13;;;20.70;50.10;;;;;;5071738;28;20479;-65
2022/03/29 11:34:04;;;;;;;25.83;18.80;;;20.80;50.00;;;;;;5067269;28;20455;-66
2022/03/29 11:36:31;;;;;;;22.23;18.47;;;20.90;50.00;;;;;;5059710;28;20450;-67
2022/03/29 11:38:58;;;;;;;22.93;20.43;;;21.10;50.50;;;;;;5071193;28;20451;-67
2022/03/29 11:41:28;;;;;;;24.40;19.43;;;21.10;49.10;;;;;;5069380;28;20471;-65
2022/03/29 11:43:57;;;;;;;20.67;18.57;;;21.50;49.30;;;;;;5067099;28;20455;-66
2022/03/29 11:46:24;;;;;;;20.10;17.67;;;21.70;50.10;;;;;;5067238;28;20482;-65
2022/03/29 11:48:52;;;;;;;22.80;18.60;;;21.80;50.40;;;;;;5070648;28;20894;-66
2022/03/29 11:51:21;;;;;;;21.90;19.57;;;21.80;50.50;;;;;;5070486;28;20471;-65
2022/03/29 11:53:57;;;;;;;22.47;20.13;;;21.80;48.90;;;;;;5069809;28;20490;-65
2022/03/29 11:56:27;;;;;;;23.50;18.40;;;21.80;49.30;;;;;;5069252;28;20478;-65
2022/03/29 11:58:55;;;;;;;21.87;19.50;;;21.60;52.00;;;;;;5060050;28;20439;-65
2022/03/29 12:01:26;;;;;;;27.20;19.33;;;21.60;49.70;;;;;;5058518;28;20502;-66
2022/03/29 12:03:55;;;;;;;23.37;20.83;;;21.80;49.90;;;;;;5066814;28;20431;-65
2022/03/29 12:06:23;;;;;;;26.00;20.30;;;21.80;50.40;;;;;;5064413;28;20454;-66
2022/03/29 12:08:55;;;;;;;24.90;18.23;;;21.80;50.30;;;;;;5066295;28;20437;-66
2022/03/29 12:11:27;;;;;;;21.03;18.03;;;21.80;47.50;;;;;;5067435;28;20470;-66
2022/03/29 12:14:07;;;;;;;25.70;20.33;;;21.70;49.20;;;;;;5065434;28;20439;-65
2022/03/29 12:16:36;;;;;;;23.70;19.40;;;21.60;47.60;;;;;;5062143;28;20430;-65
2022/03/29 12:19:07;;;;;;;28.50;18.80;;;21.50;46.90;;;;;;5060359;28;20451;-67
2022/03/29 12:21:34;;;;;;;24.07;20.13;;;21.50;49.80;;;;;;5061474;28;21035;-65
2022/03/29 12:24:03;;;;;;;22.60;17.83;;;21.50;48.00;;;;;;5060453;28;20474;-65
2022/03/29 12:26:32;;;;;;;26.83;19.20;;;21.40;47.90;;;;;;5060469;28;20447;-65
2022/03/29 12:29:00;;;;;;;22.70;19.30;;;21.50;49.70;;;;;;5058749;28;20455;-66
2022/03/29 12:31:29;;;;;;;23.63;19.10;;;21.40;49.00;;;;;;5059076;28;20471;-65
2022/03/29 12:33:57;;;;;;;22.37;18.90;;;21.50;47.90;;;;;;5059285;28;20457;-64
2022/03/29 12:36:25;;;;;;;25.53;19.10;;;21.40;48.20;;;;;;5058360;28;20462;-66
2022/03/29 12:38:54;;;;;;;20.83;18.47;;;21.40;47.90;;;;;;5059041;28;20458;-65
2022/03/29 12:41:41;;;;;;;23.50;18.27;;;21.50;47.80;;;;;;5058410;28;20477;-65
2022/03/29 12:44:10;;;;;;;27.83;19.50;;;21.30;48.10;;;;;;5059008;28;20922;-65
2022/03/29 12:46:38;;;;;;;22.30;18.10;;;21.20;49.80;;;;;;5059462;28;20458;-65
2022/03/29 12:49:06;;;;;;;25.70;19.63;;;21.20;48.60;;;;;;5058615;28;20490;-65
2022/03/29 12:51:34;;;;;;;25.17;19.43;;;21.20;47.10;;;;;;5058621;28;20996;-65
2022/03/29 12:54:03;;;;;;;22.57;18.27;;;21.20;47.80;;;;;;5059087;28;20463;-66
2022/03/29 12:56:36;;;;;;;24.30;19.30;;;21.30;48.90;;;;;;5058232;28;20462;-66
2022/03/29 12:59:36;;;;;;;26.80;20.17;;;21.20;51.00;;;;;;5058358;28;20467;-65
2022/03/29 13:02:15;;;;;;;20.77;18.43;;;21.30;49.90;;;;;;5057602;28;20487;-67
2022/03/29 13:04:44;;;;;;;25.30;20.03;;;21.30;49.40;;;;;;5060015;28;20501;-67
2022/03/29 13:07:13;;;;;;;29.37;21.77;;;21.40;49.40;;;;;;5059776;28;20474;-66
2022/03/29 13:09:59;;;;;;;26.23;20.27;;;21.30;49.00;;;;;;5058273;28;20454;-65
2022/03/29 13:12:26;;;;;;;26.93;20.70;;;21.30;49.20;;;;;;5058537;28;20572;-66
2022/03/29 13:14:54;;;;;;;29.33;22.73;;;21.20;50.40;;;;;;5059320;28;20926;-66
2022/03/29 13:17:21;;;;;;;25.40;19.87;;;21.10;51.20;;;;;;5058638;28;20447;-65
2022/03/29 13:19:55;;;;;;;170.93;28.50;;;21.10;49.80;;;;;;5058574;28;20644;-66
2022/03/29 13:22:22;;;;;;;26.33;20.73;;;20.90;50.50;;;;;;5058629;28;20471;-67
2022/03/29 13:24:49;;;;;;;20.90;17.77;;;20.90;51.30;;;;;;5057787;28;20961;-66
2022/03/29 13:27:17;;;;;;;21.80;19.33;;;20.90;52.30;;;;;;5057997;28;20475;-65
2022/03/29 13:29:43;;;;;;;23.97;18.97;;;20.80;54.60;;;;;;5057513;28;20506;-66
2022/03/29 13:32:14;;;;;;;24.43;20.03;;;20.90;53.80;;;;;;5058102;28;20474;-64
2022/03/29 13:34:42;;;;;;;23.13;19.00;;;20.90;52.00;;;;;;5057213;28;20438;-65
2022/03/29 13:37:09;;;;;;;22.43;19.53;;;20.80;52.60;;;;;;5060253;28;20447;-65
2022/03/29 13:39:36;;;;;;;24.57;19.03;;;20.80;52.50;;;;;;5067680;28;20451;-65
2022/03/29 13:42:04;;;;;;;67.47;21.27;;;20.70;52.70;;;;;;5065271;28;20832;-65
2022/03/29 13:44:31;;;;;;;23.47;19.03;;;20.80;52.90;;;;;;5064185;28;20451;-65
2022/03/29 13:46:58;;;;;;;32.73;21.23;;;20.80;55.40;;;;;;5065844;28;20501;-65
2022/03/29 13:49:27;;;;;;;30.40;21.77;;;20.80;54.50;;;;;;5059760;28;20529;-65
2022/03/29 13:51:54;;;;;;;24.33;19.20;;;20.70;50.60;;;;;;5057547;28;20558;-65
2022/03/29 13:54:22;;;;;;;30.90;21.70;;;20.60;53.90;;;;;;5058693;28;20455;-65
2022/03/29 13:56:49;;;;;;;26.73;20.33;;;20.50;53.40;;;;;;5060227;28;20451;-66
2022/03/29 13:59:15;;;;;;;27.10;19.30;;;20.50;54.20;;;;;;5058019;28;20459;-66
2022/03/29 14:01:43;;;;;;;30.80;20.27;;;20.50;55.60;;;;;;5058871;28;20490;-66
2022/03/29 14:04:10;;;;;;;23.07;19.90;;;20.40;53.70;;;;;;5057899;28;20467;-65
2022/03/29 14:06:38;;;;;;;28.50;20.33;;;20.40;54.50;;;;;;5057321;28;20459;-65
2022/03/29 14:09:05;;;;;;;26.23;19.70;;;20.30;54.00;;;;;;5058267;28;20475;-66
2022/03/29 14:11:31;;;;;;;29.93;20.83;;;20.30;53.70;;;;;;5058678;28;20482;-66
2022/03/29 14:13:58;;;;;;;24.57;19.83;;;20.40;53.40;;;;;;5057868;28;20451;-65
2022/03/29 14:16:25;;;;;;;27.00;20.77;;;20.30;55.60;;;;;;5056735;28;20458;-65
2022/03/29 14:18:53;;;;;;;23.70;19.50;;;20.30;53.00;;;;;;5056473;28;20452;-65
2022/03/29 14:21:20;;;;;;;25.40;20.70;;;20.40;54.20;;;;;;5056388;28;20566;-65
2022/03/29 14:23:48;;;;;;;24.93;19.87;;;20.40;54.70;;;;;;5055951;28;20458;-66
2022/03/29 14:26:14;;;;;;;28.03;22.03;;;20.40;53.70;;;;;;5055517;28;20458;-65
2022/03/29 14:28:42;;;;;;;28.97;21.47;;;20.40;53.30;;;;;;5055767;28;20557;-65
2022/03/29 14:31:08;;;;;;;28.97;22.07;;;20.40;52.60;;;;;;5055867;28;20471;-65
2022/03/29 14:33:36;;;;;;;30.47;20.87;;;20.40;53.90;;;;;;5057232;28;20455;-65
2022/03/29 14:36:02;;;;;;;22.83;19.40;;;20.20;54.70;;;;;;5056444;28;20490;-65
2022/03/29 14:38:29;;;;;;;28.20;21.23;;;20.20;55.30;;;;;;5056223;28;20451;-66
2022/03/29 14:40:57;;;;;;;28.33;20.00;;;20.20;54.20;;;;;;5055718;28;20479;-65
2022/03/29 14:43:26;;;;;;;24.40;19.37;;;20.00;54.50;;;;;;5056026;28;20455;-65
2022/03/29 14:45:53;;;;;;;26.60;19.10;;;19.80;53.40;;;;;;5055437;28;20451;-65
2022/03/29 14:48:20;;;;;;;25.00;19.80;;;19.80;53.80;;;;;;5054930;28;20479;-66
2022/03/29 14:50:47;;;;;;;23.90;19.60;;;19.70;52.80;;;;;;5055299;28;20483;-66
2022/03/29 14:53:15;;;;;;;21.43;17.97;;;19.70;54.50;;;;;;5057682;28;20938;-68
2022/03/29 14:55:41;;;;;;;26.70;20.60;;;19.70;53.50;;;;;;5056384;28;20452;-67
2022/03/29 14:58:09;;;;;;;31.13;19.53;;;19.70;54.30;;;;;;5057221;28;20474;-66
2022/03/29 15:00:36;;;;;;;28.43;19.93;;;19.70;54.30;;;;;;5056028;28;20463;-65
2022/03/29 15:03:03;;;;;;;25.27;19.47;;;19.80;54.00;;;;;;5055977;28;20462;-66
2022/03/29 15:05:32;;;;;;;25.63;20.03;;;19.90;54.60;;;;;;5055878;28;20455;-66
2022/03/29 15:07:59;;;;;;;24.70;19.40;;;19.80;53.40;;;;;;5055096;28;20566;-65
2022/03/29 15:10:27;;;;;;;25.77;19.97;;;19.80;54.70;;;;;;5054758;28;20455;-66
2022/03/29 15:12:54;;;;;;;26.90;20.57;;;19.80;53.80;;;;;;5055280;28;20459;-65
2022/03/29 15:15:24;;;;;;;29.30;21.43;;;19.70;52.40;;;;;;5055635;28;20451;-65
2022/03/29 15:17:51;;;;;;;31.53;21.10;;;19.50;52.50;;;;;;5055083;28;20836;-65
2022/03/29 15:20:18;;;;;;;30.37;20.23;;;19.40;53.70;;;;;;5054232;28;20483;-64
2022/03/29 15:22:45;;;;;;;27.67;18.23;;;19.40;54.20;;;;;;5055259;28;20458;-65
2022/03/29 15:25:12;;;;;;;30.10;21.30;;;19.50;55.70;;;;;;5054905;28;20459;-63
2022/03/29 15:27:39;;;;;;;35.07;19.67;;;19.50;53.00;;;;;;5054657;28;20845;-64
2022/03/29 15:30:08;;;;;;;39.83;20.37;;;19.40;55.00;;;;;;5054819;28;20964;-64
2022/03/29 15:32:36;;;;;;;19.67;15.77;;;19.50;54.90;;;;;;5054884;28;20475;-64
2022/03/29 15:35:02;;;;;;;28.43;22.20;;;19.60;55.40;;;;;;5054355;28;20451;-63
2022/03/29 15:37:29;;;;;;;27.13;19.83;;;19.70;54.50;;;;;;5054692;28;20455;-63
2022/03/29 15:39:59;;;;;;;41.43;22.47;;;19.70;54.20;;;;;;5055952;28;20455;-64
2022/03/29 15:42:26;;;;;;;33.23;21.87;;;19.80;55.30;;;;;;5055769;28;20475;-65
2022/03/29 15:44:53;;;;;;;36.53;21.07;;;19.70;54.20;;;;;;5055108;28;20958;-65
2022/03/29 15:47:22;;;;;;;41.90;20.00;;;19.60;53.80;;;;;;5055324;28;20513;-63
2022/03/29 15:49:50;;;;;;;43.83;21.00;;;19.60;54.70;;;;;;5055791;28;20462;-63
2022/03/29 15:52:18;;;;;;;46.23;20.37;;;19.50;54.50;;;;;;5056435;28;20807;-63
2022/03/29 15:54:45;;;;;;;68.60;20.23;;;19.60;54.30;;;;;;5055828;28;20451;-65
2022/03/29 15:57:12;;;;;;;40.87;21.10;;;19.60;54.20;;;;;;5054701;28;20462;-64
2022/03/29 15:59:40;;;;;;;29.47;20.30;;;19.50;54.40;;;;;;5056019;28;20634;-64
2022/03/29 16:02:09;;;;;;;29.50;20.67;;;19.40;53.60;;;;;;5055144;28;20479;-63
2022/03/29 16:04:36;;;;;;;25.13;18.97;;;19.30;53.30;;;;;;5055141;28;20451;-64
2022/03/29 16:07:06;;;;;;;28.20;20.93;;;19.20;54.70;;;;;;5055416;28;20526;-63
2022/03/29 16:09:34;;;;;;;24.70;19.97;;;19.20;53.80;;;;;;5055312;28;20483;-63
2022/03/29 16:12:03;;;;;;;32.47;17.90;;;19.20;55.30;;;;;;5055940;28;20494;-64
2022/03/29 16:14:30;;;;;;;30.90;20.70;;;19.10;55.90;;;;;;5054603;28;20459;-65
2022/03/29 16:16:57;;;;;;;31.37;20.90;;;19.10;54.30;;;;;;5055355;28;20876;-64
2022/03/29 16:19:24;;;;;;;26.67;18.50;;;19.10;55.70;;;;;;5055777;28;20490;-64
2022/03/29 16:21:52;;;;;;;27.77;20.30;;;19.00;54.70;;;;;;5055610;28;20470;-64
2022/03/29 16:24:20;;;;;;;25.37;18.87;;;18.90;53.60;;;;;;5057036;28;20451;-65
2022/03/29 16:26:47;;;;;;;27.10;20.87;;;18.90;55.30;;;;;;5055257;28;20462;-65
2022/03/29 16:29:16;;;;;;;27.30;19.90;;;18.80;53.20;;;;;;5054965;28;20468;-65
2022/03/29 16:31:42;;;;;;;24.03;19.70;;;18.80;54.00;;;;;;5055714;28;20873;-66
2022/03/29 16:34:11;;;;;;;33.77;20.17;;;18.60;53.30;;;;;;5055836;28;20464;-66
2022/03/29 16:36:39;;;;;;;25.37;20.27;;;18.60;55.90;;;;;;5055077;28;20986;-66
2022/03/29 16:39:08;;;;;;;35.77;20.70;;;18.50;54.60;;;;;;5055091;28;20470;-67
2022/03/29 16:41:36;;;;;;;36.87;21.90;;;18.40;54.70;;;;;;5054844;28;20986;-67
2022/03/29 16:44:05;;;;;;;27.30;20.00;;;18.40;56.00;;;;;;5055554;28;20455;-67
2022/03/29 16:46:34;;;;;;;36.00;19.97;;;18.30;55.50;;;;;;5055579;28;20463;-67
2022/03/29 16:51:12;;;;;;;34.53;20.07;;;18.20;55.80;;;;;;5117117;27;20575;-65
2022/03/29 16:53:40;;;;;;;23.63;18.17;;;18.20;58.70;;;;;;5115288;28;20449;-66
2022/03/29 16:56:09;;;;;;;30.13;21.20;;;18.20;58.80;;;;;;5115336;28;20444;-65
2022/03/29 16:58:36;;;;;;;29.17;20.87;;;18.10;54.40;;;;;;5116104;28;20445;-65
2022/03/29 17:01:02;;;;;;;30.37;20.80;;;18.00;54.80;;;;;;5115582;28;20473;-66
2022/03/29 17:03:29;;;;;;;28.63;21.40;;;18.00;54.80;;;;;;5116252;28;20452;-66
2022/03/29 17:05:56;;;;;;;29.10;20.93;;;17.90;54.90;;;;;;5114340;28;20448;-65